sensor_id;sensor_type;location;lat;lon;timestamp;pressure;altitude;pressure_sealevel;temperature;humidity
16094;BME280;8151;47.824;12.092;2023-04-03T00:01:21;96783.06;;;6.22;75.03
16094;BME280;8151;47.824;12.092;2023-04-03T00:03:51;96783.06;;;6.22;74.88
16094;BME280;8151;47.824;12.092;2023-04-03T00:06:19;96785.44;;;6.25;75.04
16094;BME280;8151;47.824;12.092;2023-04-03T00:08:48;96782.00;;;6.24;74.71
16094;BME280;8151;47.824;12.092;2023-04-03T00:11:17;96784.47;;;6.26;74.85
16094;BME280;8151;47.824;12.092;2023-04-03T00:13:46;96781.13;;;6.24;74.87
16094;BME280;8151;47.824;12.092;2023-04-03T00:16:14;96776.84;;;6.23;75.25
16094;BME280;8151;47.824;12.092;2023-04-03T00:18:43;96783.91;;;6.22;75.03
16094;BME280;8151;47.824;12.092;2023-04-03T00:21:13;96779.47;;;6.23;74.70
16094;BME280;8151;47.824;12.092;2023-04-03T00:23:42;96777.56;;;6.25;74.94
16094;BME280;8151;47.824;12.092;2023-04-03T00:26:11;96780.88;;;6.27;75.08
16094;BME280;8151;47.824;12.092;2023-04-03T00:28:40;96783.38;;;6.28;75.04
16094;BME280;8151;47.824;12.092;2023-04-03T00:31:08;96780.88;;;6.27;75.14
16094;BME280;8151;47.824;12.092;2023-04-03T00:33:37;96787.09;;;6.26;74.87
16094;BME280;8151;47.824;12.092;2023-04-03T00:36:06;96779.22;;;6.26;74.97
16094;BME280;8151;47.824;12.092;2023-04-03T00:38:37;96783.75;;;6.24;75.09
16094;BME280;8151;47.824;12.092;2023-04-03T00:41:06;96782.00;;;6.24;75.30
16094;BME280;8151;47.824;12.092;2023-04-03T00:43:35;96785.31;;;6.26;74.58
16094;BME280;8151;47.824;12.092;2023-04-03T00:46:04;96782.13;;;6.23;74.81
16094;BME280;8151;47.824;12.092;2023-04-03T00:48:35;96779.47;;;6.23;75.04
16094;BME280;8151;47.824;12.092;2023-04-03T00:51:07;96782.00;;;6.24;75.35
16094;BME280;8151;47.824;12.092;2023-04-03T00:53:41;96773.94;;;6.26;74.67
16094;BME280;8151;47.824;12.092;2023-04-03T00:56:13;96779.47;;;6.23;74.73
16094;BME280;8151;47.824;12.092;2023-04-03T00:58:47;96784.16;;;6.19;75.18
16094;BME280;8151;47.824;12.092;2023-04-03T01:01:20;96779.72;;;6.20;74.68
16094;BME280;8151;47.824;12.092;2023-04-03T01:03:51;96785.00;;;6.20;75.09
16094;BME280;8151;47.824;12.092;2023-04-03T01:06:21;96778.09;;;6.19;75.02
16094;BME280;8151;47.824;12.092;2023-04-03T01:08:53;96781.94;;;6.15;74.58
16094;BME280;8151;47.824;12.092;2023-04-03T01:11:22;96786.34;;;6.14;74.56
16094;BME280;8151;47.824;12.092;2023-04-03T01:13:50;96786.34;;;6.14;74.46
16094;BME280;8151;47.824;12.092;2023-04-03T01:16:19;96782.31;;;6.10;74.52
16094;BME280;8151;47.824;12.092;2023-04-03T01:18:48;96781.59;;;6.08;74.48
16094;BME280;8151;47.824;12.092;2023-04-03T01:21:47;96787.38;;;6.02;74.61
16094;BME280;8151;47.824;12.092;2023-04-03T01:24:34;96789.44;;;5.98;75.20
16094;BME280;8151;47.824;12.092;2023-04-03T01:27:05;96782.38;;;5.99;74.95
16094;BME280;8151;47.824;12.092;2023-04-03T01:29:34;96791.13;;;5.99;74.50
16094;BME280;8151;47.824;12.092;2023-04-03T01:32:04;96795.50;;;5.99;74.87
16094;BME280;8151;47.824;12.092;2023-04-03T01:34:32;96788.94;;;5.93;75.01
16094;BME280;8151;47.824;12.092;2023-04-03T01:37:01;96797.81;;;5.92;75.11
16094;BME280;8151;47.824;12.092;2023-04-03T01:39:29;96795.88;;;5.94;74.31
16094;BME280;8151;47.824;12.092;2023-04-03T01:41:57;96793.25;;;5.94;74.53
16094;BME280;8151;47.824;12.092;2023-04-03T01:44:27;96800.56;;;5.90;75.16
16094;BME280;8151;47.824;12.092;2023-04-03T01:46:56;96794.00;;;5.85;75.07
16094;BME280;8151;47.824;12.092;2023-04-03T01:49:26;96799.53;;;5.82;74.64
16094;BME280;8151;47.824;12.092;2023-04-03T01:51:54;96793.44;;;5.81;75.16
16094;BME280;8151;47.824;12.092;2023-04-03T01:54:22;96794.00;;;5.85;74.90
16094;BME280;8151;47.824;12.092;2023-04-03T01:56:51;96798.31;;;5.86;74.58
16094;BME280;8151;47.824;12.092;2023-04-03T01:59:19;96793.66;;;5.89;74.59
16094;BME280;8151;47.824;12.092;2023-04-03T02:01:48;96792.78;;;5.89;74.68
16094;BME280;8151;47.824;12.092;2023-04-03T02:04:16;96797.34;;;5.87;74.66
16094;BME280;8151;47.824;12.092;2023-04-03T02:06:47;96789.34;;;5.88;74.76
16094;BME280;8151;47.824;12.092;2023-04-03T02:09:25;96795.56;;;5.87;74.41
16094;BME280;8151;47.824;12.092;2023-04-03T02:11:54;96792.09;;;5.87;74.91
16094;BME280;8151;47.824;12.092;2023-04-03T02:14:22;96794.59;;;5.88;74.78
16094;BME280;8151;47.824;12.092;2023-04-03T02:16:51;96789.47;;;5.87;74.48
16094;BME280;8151;47.824;12.092;2023-04-03T02:19:20;96799.16;;;5.86;74.54
16094;BME280;8151;47.824;12.092;2023-04-03T02:21:50;96794.84;;;5.85;74.32
16094;BME280;8151;47.824;12.092;2023-04-03T02:24:18;96798.56;;;5.83;74.84
16094;BME280;8151;47.824;12.092;2023-04-03T02:26:48;96799.53;;;5.82;74.83
16094;BME280;8151;47.824;12.092;2023-04-03T02:29:16;96798.84;;;5.80;74.86
16094;BME280;8151;47.824;12.092;2023-04-03T02:31:45;96796.22;;;5.80;74.67
16094;BME280;8151;47.824;12.092;2023-04-03T02:34:16;96797.84;;;5.81;74.32
16094;BME280;8151;47.824;12.092;2023-04-03T02:36:44;96790.81;;;5.81;74.52
16094;BME280;8151;47.824;12.092;2023-04-03T02:39:14;96791.09;;;5.78;74.84
16094;BME280;8151;47.824;12.092;2023-04-03T02:41:42;96799.31;;;5.73;74.99
16094;BME280;8151;47.824;12.092;2023-04-03T02:44:12;96802.66;;;5.76;74.51
16094;BME280;8151;47.824;12.092;2023-04-03T02:46:40;96802.66;;;5.76;74.20
16094;BME280;8151;47.824;12.092;2023-04-03T02:49:09;96796.56;;;5.75;74.38
16094;BME280;8151;47.824;12.092;2023-04-03T02:51:37;96799.19;;;5.75;74.43
16094;BME280;8151;47.824;12.092;2023-04-03T02:54:06;96798.25;;;5.76;74.77
16094;BME280;8151;47.824;12.092;2023-04-03T02:56:35;96794.84;;;5.64;74.35
16094;BME280;8151;47.824;12.092;2023-04-03T02:59:04;96805.84;;;5.58;74.64
16094;BME280;8151;47.824;12.092;2023-04-03T03:01:33;96810.25;;;5.58;74.95
16094;BME280;8151;47.824;12.092;2023-04-03T03:04:03;96802.28;;;5.59;74.54
16094;BME280;8151;47.824;12.092;2023-04-03T03:06:31;96803.81;;;5.62;75.07
16094;BME280;8151;47.824;12.092;2023-04-03T03:09:00;96804.06;;;5.59;74.63
16094;BME280;8151;47.824;12.092;2023-04-03T03:11:29;96801.28;;;5.60;74.91
16094;BME280;8151;47.824;12.092;2023-04-03T03:13:59;96800.34;;;5.61;75.05
16094;BME280;8151;47.824;12.092;2023-04-03T03:16:27;96808.34;;;5.60;75.26
16094;BME280;8151;47.824;12.092;2023-04-03T03:18:55;96803.38;;;5.57;75.10
16094;BME280;8151;47.824;12.092;2023-04-03T03:21:27;96806.69;;;5.59;75.28
16094;BME280;8151;47.824;12.092;2023-04-03T03:23:55;96804.06;;;5.59;74.89
16094;BME280;8151;47.824;12.092;2023-04-03T03:26:24;96806.63;;;5.49;75.19
16094;BME280;8151;47.824;12.092;2023-04-03T03:28:52;96797.88;;;5.48;75.04
16094;BME280;8151;47.824;12.092;2023-04-03T03:31:22;96804.63;;;5.41;75.66
16094;BME280;8151;47.824;12.092;2023-04-03T03:33:51;96804.25;;;5.35;75.61
16094;BME280;8151;47.824;12.092;2023-04-03T03:36:19;96801.28;;;5.39;75.46
16094;BME280;8151;47.824;12.092;2023-04-03T03:38:48;96801.22;;;5.29;75.95
16094;BME280;8151;47.824;12.092;2023-04-03T03:41:17;96800.22;;;5.30;75.83
16094;BME280;8151;47.824;12.092;2023-04-03T03:43:45;96807.16;;;5.31;75.93
16094;BME280;8151;47.824;12.092;2023-04-03T03:46:17;96805.84;;;5.37;75.84
16094;BME280;8151;47.824;12.092;2023-04-03T03:48:46;96808.88;;;5.42;75.74
16094;BME280;8151;47.824;12.092;2023-04-03T03:51:16;96803.72;;;5.52;75.28
16094;BME280;8151;47.824;12.092;2023-04-03T03:53:44;96806.81;;;5.57;74.94
16094;BME280;8151;47.824;12.092;2023-04-03T03:56:13;96807.28;;;5.62;75.02
16094;BME280;8151;47.824;12.092;2023-04-03T03:58:41;96807.13;;;5.64;75.29
16094;BME280;8151;47.824;12.092;2023-04-03T04:01:10;96808.53;;;5.68;74.95
16094;BME280;8151;47.824;12.092;2023-04-03T04:03:38;96808.41;;;5.69;75.08
16094;BME280;8151;47.824;12.092;2023-04-03T04:06:08;96810.81;;;5.72;75.01
16094;BME280;8151;47.824;12.092;2023-04-03T04:08:36;96799.31;;;5.73;74.71
16094;BME280;8151;47.824;12.092;2023-04-03T04:11:05;96803.75;;;5.73;75.05
16094;BME280;8151;47.824;12.092;2023-04-03T04:13:34;96801.00;;;5.75;75.05
16094;BME280;8151;47.824;12.092;2023-04-03T04:16:03;96803.63;;;5.75;75.19
16094;BME280;8151;47.824;12.092;2023-04-03T04:18:31;96805.44;;;5.74;74.57
16094;BME280;8151;47.824;12.092;2023-04-03T04:20:59;96808.88;;;5.75;75.26
16094;BME280;8151;47.824;12.092;2023-04-03T04:23:29;96801.13;;;5.73;75.08
16094;BME280;8151;47.824;12.092;2023-04-03T04:25:57;96800.41;;;5.71;75.04
16094;BME280;8151;47.824;12.092;2023-04-03T04:28:26;96804.97;;;5.69;74.99
16094;BME280;8151;47.824;12.092;2023-04-03T04:30:54;96806.75;;;5.68;74.79
16094;BME280;8151;47.824;12.092;2023-04-03T04:33:23;96807.84;;;5.66;74.94
16094;BME280;8151;47.824;12.092;2023-04-03T04:35:51;96806.41;;;5.62;75.01
16094;BME280;8151;47.824;12.092;2023-04-03T04:38:30;96810.66;;;5.53;75.66
16094;BME280;8151;47.824;12.092;2023-04-03T04:40:59;96805.63;;;5.50;75.71
16094;BME280;8151;47.824;12.092;2023-04-03T04:43:27;96814.69;;;5.57;75.31
16094;BME280;8151;47.824;12.092;2023-04-03T04:46:04;96810.84;;;5.61;75.08
16094;BME280;8151;47.824;12.092;2023-04-03T04:48:33;96812.38;;;5.64;75.19
16094;BME280;8151;47.824;12.092;2023-04-03T04:51:01;96810.34;;;5.67;75.46
16094;BME280;8151;47.824;12.092;2023-04-03T04:53:32;96814.66;;;5.68;74.73
16094;BME280;8151;47.824;12.092;2023-04-03T04:56:00;96810.34;;;5.67;75.24
16094;BME280;8151;47.824;12.092;2023-04-03T04:58:29;96813.66;;;5.69;75.52
16094;BME280;8151;47.824;12.092;2023-04-03T05:01:00;96815.34;;;5.70;75.49
16094;BME280;8151;47.824;12.092;2023-04-03T05:03:29;96813.44;;;5.72;74.78
16094;BME280;8151;47.824;12.092;2023-04-03T05:05:57;96820.31;;;5.73;74.88
16094;BME280;8151;47.824;12.092;2023-04-03T05:08:26;96818.41;;;5.76;75.00
16094;BME280;8151;47.824;12.092;2023-04-03T05:10:56;96823.09;;;5.72;74.94
16094;BME280;8151;47.824;12.092;2023-04-03T05:13:25;96829.53;;;5.68;75.34
16094;BME280;8151;47.824;12.092;2023-04-03T05:15:53;96827.78;;;5.68;74.81
16094;BME280;8151;47.824;12.092;2023-04-03T05:18:21;96825.25;;;5.67;75.06
16094;BME280;8151;47.824;12.092;2023-04-03T05:20:50;96829.41;;;5.69;75.37
16094;BME280;8151;47.824;12.092;2023-04-03T05:23:18;96829.28;;;5.71;75.14
16094;BME280;8151;47.824;12.092;2023-04-03T05:25:47;96837.06;;;5.72;74.94
16094;BME280;8151;47.824;12.092;2023-04-03T05:28:17;96826.44;;;5.74;74.86
16094;BME280;8151;47.824;12.092;2023-04-03T05:30:52;96833.34;;;5.75;75.31
16094;BME280;8151;47.824;12.092;2023-04-03T05:33:21;96832.97;;;5.80;74.83
16094;BME280;8151;47.824;12.092;2023-04-03T05:35:51;96836.53;;;5.79;74.62
16094;BME280;8151;47.824;12.092;2023-04-03T05:38:19;96840.84;;;5.80;74.74
16094;BME280;8151;47.824;12.092;2023-04-03T05:40:49;96839.16;;;5.79;74.67
16094;BME280;8151;47.824;12.092;2023-04-03T05:43:19;96840.97;;;5.78;75.11
16094;BME280;8151;47.824;12.092;2023-04-03T05:45:47;96843.84;;;5.75;75.11
16094;BME280;8151;47.824;12.092;2023-04-03T05:48:16;96842.44;;;5.71;75.03
16094;BME280;8151;47.824;12.092;2023-04-03T05:50:45;96844.34;;;5.69;74.60
16094;BME280;8151;47.824;12.092;2023-04-03T05:53:17;96843.53;;;5.68;75.11
16094;BME280;8151;47.824;12.092;2023-04-03T05:55:47;96850.31;;;5.71;75.20
16094;BME280;8151;47.824;12.092;2023-04-03T05:58:16;96848.50;;;5.71;74.62
16094;BME280;8151;47.824;12.092;2023-04-03T06:00:46;96850.19;;;5.72;74.67
16094;BME280;8151;47.824;12.092;2023-04-03T06:03:25;96843.72;;;5.77;74.34
16094;BME280;8151;47.824;12.092;2023-04-03T06:05:53;96842.75;;;5.78;74.18
16094;BME280;8151;47.824;12.092;2023-04-03T06:08:22;96846.47;;;5.75;74.93
16094;BME280;8151;47.824;12.092;2023-04-03T06:10:51;96843.97;;;5.73;74.38
16094;BME280;8151;47.824;12.092;2023-04-03T06:13:20;96849.91;;;5.76;74.88
16094;BME280;8151;47.824;12.092;2023-04-03T06:15:51;96845.63;;;5.75;74.21
16094;BME280;8151;47.824;12.092;2023-04-03T06:18:20;96843.00;;;5.75;74.62
16094;BME280;8151;47.824;12.092;2023-04-03T06:20:50;96848.97;;;5.77;74.51
16094;BME280;8151;47.824;12.092;2023-04-03T06:23:21;96843.72;;;5.77;74.76
16094;BME280;8151;47.824;12.092;2023-04-03T06:25:50;96851.00;;;5.73;74.50
16094;BME280;8151;47.824;12.092;2023-04-03T06:28:21;96860.69;;;5.72;74.04
16094;BME280;8151;47.824;12.092;2023-04-03T06:30:53;96856.13;;;5.75;74.13
16094;BME280;8151;47.824;12.092;2023-04-03T06:33:22;96862.59;;;5.70;74.04
16094;BME280;8151;47.824;12.092;2023-04-03T06:35:55;96861.63;;;5.71;74.24
16094;BME280;8151;47.824;12.092;2023-04-03T06:38:24;96865.94;;;5.72;74.57
16094;BME280;8151;47.824;12.092;2023-04-03T06:40:54;96862.34;;;5.73;74.22
16094;BME280;8151;47.824;12.092;2023-04-03T06:43:23;96869.16;;;5.76;74.67
16094;BME280;8151;47.824;12.092;2023-04-03T06:45:53;96863.91;;;5.76;74.33
16094;BME280;8151;47.824;12.092;2023-04-03T06:48:21;96865.19;;;5.82;74.41
16094;BME280;8151;47.824;12.092;2023-04-03T06:50:52;96864.81;;;5.86;73.95
16094;BME280;8151;47.824;12.092;2023-04-03T06:53:21;96869.81;;;5.89;73.93
16094;BME280;8151;47.824;12.092;2023-04-03T06:55:51;96860.97;;;5.90;74.11
16094;BME280;8151;47.824;12.092;2023-04-03T06:58:20;96871.34;;;5.92;73.68
16094;BME280;8151;47.824;12.092;2023-04-03T07:00:52;96869.66;;;5.91;74.05
16094;BME280;8151;47.824;12.092;2023-04-03T07:03:21;96879.09;;;5.94;74.18
16094;BME280;8151;47.824;12.092;2023-04-03T07:05:51;96876.81;;;6.00;74.38
16094;BME280;8151;47.824;12.092;2023-04-03T07:08:20;96875.47;;;6.06;74.07
16094;BME280;8151;47.824;12.092;2023-04-03T07:10:53;96890.72;;;6.12;74.07
16094;BME280;8151;47.824;12.092;2023-04-03T07:13:21;96880.56;;;6.19;73.65
16094;BME280;8151;47.824;12.092;2023-04-03T07:15:53;96887.09;;;6.24;74.01
16094;BME280;8151;47.824;12.092;2023-04-03T07:18:22;96887.53;;;6.29;73.78
16094;BME280;8151;47.824;12.092;2023-04-03T07:20:51;96879.63;;;6.29;74.04
16094;BME280;8151;47.824;12.092;2023-04-03T07:23:19;96886.69;;;6.29;73.69
16094;BME280;8151;47.824;12.092;2023-04-03T07:25:49;96881.91;;;6.34;73.75
16094;BME280;8151;47.824;12.092;2023-04-03T07:28:19;96879.00;;;6.37;73.78
16094;BME280;8151;47.824;12.092;2023-04-03T07:30:51;96892.13;;;6.37;73.90
16094;BME280;8151;47.824;12.092;2023-04-03T07:33:22;96889.69;;;6.45;73.47
16094;BME280;8151;47.824;12.092;2023-04-03T07:35:51;96889.91;;;6.54;73.61
16094;BME280;8151;47.824;12.092;2023-04-03T07:38:20;96890.31;;;6.59;73.51
16094;BME280;8151;47.824;12.092;2023-04-03T07:40:49;96888.28;;;6.62;73.27
16094;BME280;8151;47.824;12.092;2023-04-03T07:43:22;96887.56;;;6.60;73.11
16094;BME280;8151;47.824;12.092;2023-04-03T07:45:54;96892.00;;;6.60;73.13
16094;BME280;8151;47.824;12.092;2023-04-03T07:48:25;96892.56;;;6.63;73.34
16094;BME280;8151;47.824;12.092;2023-04-03T07:50:59;96892.31;;;6.66;73.15
16094;BME280;8151;47.824;12.092;2023-04-03T07:53:28;96894.81;;;6.68;72.97
16094;BME280;8151;47.824;12.092;2023-04-03T07:55:58;96890.38;;;6.68;72.88
16094;BME280;8151;47.824;12.092;2023-04-03T07:58:26;96896.47;;;6.69;73.04
16094;BME280;8151;47.824;12.092;2023-04-03T08:00:55;96900.88;;;6.68;72.88
16094;BME280;8151;47.824;12.092;2023-04-03T08:03:25;96903.41;;;6.70;72.99
16094;BME280;8151;47.824;12.092;2023-04-03T08:06:02;96893.69;;;6.70;72.80
16094;BME280;8151;47.824;12.092;2023-04-03T08:08:33;96903.41;;;6.70;73.02
16094;BME280;8151;47.824;12.092;2023-04-03T08:11:02;96901.47;;;6.72;72.72
16094;BME280;8151;47.824;12.092;2023-04-03T08:13:33;96910.06;;;6.74;72.50
16094;BME280;8151;47.824;12.092;2023-04-03T08:16:10;96897.59;;;6.76;72.72
16094;BME280;8151;47.824;12.092;2023-04-03T08:18:41;96896.53;;;6.79;72.79
16094;BME280;8151;47.824;12.092;2023-04-03T08:21:11;96902.50;;;6.81;72.32
16094;BME280;8151;47.824;12.092;2023-04-03T08:23:40;96895.69;;;6.78;72.40
16094;BME280;8151;47.824;12.092;2023-04-03T08:26:10;96896.91;;;6.74;72.71
16094;BME280;8151;47.824;12.092;2023-04-03T08:28:39;96895.97;;;6.75;72.33
16094;BME280;8151;47.824;12.092;2023-04-03T08:31:10;96896.78;;;6.76;72.62
16094;BME280;8151;47.824;12.092;2023-04-03T08:33:41;96910.19;;;6.73;72.19
16094;BME280;8151;47.824;12.092;2023-04-03T08:36:17;96904.22;;;6.70;72.78
16094;BME280;8151;47.824;12.092;2023-04-03T08:38:47;96909.47;;;6.70;72.34
16094;BME280;8151;47.824;12.092;2023-04-03T08:41:20;96909.34;;;6.72;72.52
16094;BME280;8151;47.824;12.092;2023-04-03T08:44:20;96908.13;;;6.76;72.10
16094;BME280;8151;47.824;12.092;2023-04-03T08:47:11;96909.22;;;6.74;71.93
16094;BME280;8151;47.824;12.092;2023-04-03T08:49:47;96899.81;;;6.71;72.21
16094;BME280;8151;47.824;12.092;2023-04-03T08:52:24;96910.19;;;6.73;72.11
16094;BME280;8151;47.824;12.092;2023-04-03T08:54:57;96899.28;;;6.77;72.39
16094;BME280;8151;47.824;12.092;2023-04-03T08:57:29;96906.53;;;6.85;72.07
16094;BME280;8151;47.824;12.092;2023-04-03T09:00:03;96900.59;;;6.93;71.99
16094;BME280;8151;47.824;12.092;2023-04-03T09:02:34;96899.63;;;6.94;71.72
16094;BME280;8151;47.824;12.092;2023-04-03T09:05:13;96896.88;;;6.95;71.55
16094;BME280;8151;47.824;12.092;2023-04-03T09:07:43;96904.75;;;6.95;71.63
16094;BME280;8151;47.824;12.092;2023-04-03T09:10:20;96896.88;;;6.95;71.41
16094;BME280;8151;47.824;12.092;2023-04-03T09:12:59;96904.63;;;6.97;71.48
16094;BME280;8151;47.824;12.092;2023-04-03T09:15:35;96909.47;;;7.01;71.27
16094;BME280;8151;47.824;12.092;2023-04-03T09:18:12;96912.00;;;7.03;70.96
16094;BME280;8151;47.824;12.092;2023-04-03T09:20:46;96902.03;;;7.06;70.92
16094;BME280;8151;47.824;12.092;2023-04-03T09:23:22;96906.88;;;7.11;70.85
16094;BME280;8151;47.824;12.092;2023-04-03T09:26:02;96911.59;;;7.17;70.58
16094;BME280;8151;47.824;12.092;2023-04-03T09:28:35;96911.22;;;7.22;70.39
16094;BME280;8151;47.824;12.092;2023-04-03T09:31:20;96913.31;;;7.28;70.42
16094;BME280;8151;47.824;12.092;2023-04-03T09:33:51;96901.44;;;7.34;70.32
16094;BME280;8151;47.824;12.092;2023-04-03T09:36:43;96901.88;;;7.39;69.85
16094;BME280;8151;47.824;12.092;2023-04-03T09:39:15;96904.22;;;7.42;69.99
16094;BME280;8151;47.824;12.092;2023-04-03T09:41:57;96904.50;;;7.39;69.52
16094;BME280;8151;47.824;12.092;2023-04-03T09:44:27;96901.88;;;7.39;69.79
16094;BME280;8151;47.824;12.092;2023-04-03T09:46:55;96900.50;;;7.44;69.80
16094;BME280;8151;47.824;12.092;2023-04-03T09:49:24;96901.03;;;7.48;69.46
16094;BME280;8151;47.824;12.092;2023-04-03T09:51:55;96899.25;;;7.48;69.70
16094;BME280;8151;47.824;12.092;2023-04-03T09:54:32;96903.25;;;7.43;69.58
16094;BME280;8151;47.824;12.092;2023-04-03T09:57:04;96905.56;;;7.36;69.67
16094;BME280;8151;47.824;12.092;2023-04-03T09:59:34;96903.81;;;7.37;69.65
16094;BME280;8151;47.824;12.092;2023-04-03T10:05:00;96906.16;;;7.49;69.30
16094;BME280;8151;47.824;12.092;2023-04-03T10:07:37;96899.28;;;7.58;69.20
16094;BME280;8151;47.824;12.092;2023-04-03T10:10:18;96898.03;;;7.62;68.87
16094;BME280;8151;47.824;12.092;2023-04-03T10:12:47;96899.53;;;7.65;68.89
16094;BME280;8151;47.824;12.092;2023-04-03T10:15:17;96898.59;;;7.66;68.89
16094;BME280;8151;47.824;12.092;2023-04-03T10:17:53;96903.28;;;7.62;68.70
16094;BME280;8151;47.824;12.092;2023-04-03T10:20:33;96894.81;;;7.59;68.76
16094;BME280;8151;47.824;12.092;2023-04-03T10:23:16;96899.78;;;7.52;68.62
16094;BME280;8151;47.824;12.092;2023-04-03T10:25:55;96893.41;;;7.45;68.90
16094;BME280;8151;47.824;12.092;2023-04-03T10:28:34;96900.88;;;7.40;69.11
16094;BME280;8151;47.824;12.092;2023-04-03T10:31:13;96895.75;;;7.38;69.11
16094;BME280;8151;47.824;12.092;2023-04-03T10:33:54;96897.81;;;7.35;69.22
16094;BME280;8151;47.824;12.092;2023-04-03T10:36:33;96901.44;;;7.34;68.96
16094;BME280;8151;47.824;12.092;2023-04-03T10:39:14;96896.97;;;7.34;68.97
16094;BME280;8151;47.824;12.092;2023-04-03T10:42:03;96895.63;;;7.40;68.81
16094;BME280;8151;47.824;12.092;2023-04-03T10:45:03;96898.69;;;7.45;68.32
16094;BME280;8151;47.824;12.092;2023-04-03T10:47:40;96898.13;;;7.51;68.31
16094;BME280;8151;47.824;12.092;2023-04-03T10:50:29;96894.00;;;7.58;68.19
16094;BME280;8151;47.824;12.092;2023-04-03T10:53:04;96898.16;;;7.71;67.79
16094;BME280;8151;47.824;12.092;2023-04-03T10:55:41;96892.91;;;7.80;67.85
16094;BME280;8151;47.824;12.092;2023-04-03T10:58:20;96893.91;;;7.89;67.97
16094;BME280;8151;47.824;12.092;2023-04-03T11:00:51;96890.13;;;8.01;67.85
16094;BME280;8151;47.824;12.092;2023-04-03T11:03:29;96890.56;;;8.06;67.63
16094;BME280;8151;47.824;12.092;2023-04-03T11:06:01;96882.91;;;8.13;67.69
16094;BME280;8151;47.824;12.092;2023-04-03T11:08:38;96880.16;;;8.15;67.51
16094;BME280;8151;47.824;12.092;2023-04-03T11:11:14;96878.75;;;8.20;67.06
16094;BME280;8151;47.824;12.092;2023-04-03T11:13:49;96884.84;;;8.21;67.28
16094;BME280;8151;47.824;12.092;2023-04-03T11:16:24;96882.47;;;8.18;67.23
16094;BME280;8151;47.824;12.092;2023-04-03T11:18:57;96885.81;;;8.10;66.97
16094;BME280;8151;47.824;12.092;2023-04-03T11:21:29;96886.50;;;8.02;66.95
16094;BME280;8151;47.824;12.092;2023-04-03T11:24:03;96883.19;;;8.00;66.67
16094;BME280;8151;47.824;12.092;2023-04-03T11:26:38;96880.00;;;7.97;66.71
16094;BME280;8151;47.824;12.092;2023-04-03T11:29:13;96877.91;;;7.91;66.57
16094;BME280;8151;47.824;12.092;2023-04-03T11:32:16;96886.69;;;7.91;66.47
16094;BME280;8151;47.824;12.092;2023-04-03T11:34:50;96878.91;;;7.89;66.34
16094;BME280;8151;47.824;12.092;2023-04-03T11:37:25;96876.66;;;7.85;66.34
16094;BME280;8151;47.824;12.092;2023-04-03T11:39:59;96887.91;;;7.77;66.12
16094;BME280;8151;47.824;12.092;2023-04-03T11:42:34;96884.16;;;7.70;66.41
16094;BME280;8151;47.824;12.092;2023-04-03T11:45:33;96876.13;;;7.62;66.32
16094;BME280;8151;47.824;12.092;2023-04-03T11:48:05;96880.41;;;7.53;66.48
16094;BME280;8151;47.824;12.092;2023-04-03T11:50:50;96879.00;;;7.39;66.93
16094;BME280;8151;47.824;12.092;2023-04-03T11:53:28;96886.59;;;7.33;67.05
16094;BME280;8151;47.824;12.092;2023-04-03T11:55:59;96888.09;;;7.25;67.19
16094;BME280;8151;47.824;12.092;2023-04-03T11:58:31;96886.72;;;7.21;66.99
16094;BME280;8151;47.824;12.092;2023-04-03T12:01:03;96883.78;;;7.15;67.31
16094;BME280;8151;47.824;12.092;2023-04-03T12:13:00;96883.94;;;7.23;66.88
16094;BME280;8151;47.824;12.092;2023-04-03T12:15:56;96892.69;;;7.23;67.09
16094;BME280;8151;47.824;12.092;2023-04-03T12:18:58;96885.75;;;7.22;66.64
16094;BME280;8151;47.824;12.092;2023-04-03T12:22:09;96883.53;;;7.18;66.85
16094;BME280;8151;47.824;12.092;2023-04-03T12:24:39;96890.56;;;7.17;67.37
16094;BME280;8151;47.824;12.092;2023-04-03T12:27:17;96884.34;;;7.18;66.88
16094;BME280;8151;47.824;12.092;2023-04-03T12:29:54;96887.66;;;7.20;66.67
16094;BME280;8151;47.824;12.092;2023-04-03T12:32:36;96877.84;;;7.22;66.53
16094;BME280;8151;47.824;12.092;2023-04-03T12:35:15;96891.97;;;7.21;66.43
16094;BME280;8151;47.824;12.092;2023-04-03T12:38:23;96886.16;;;7.18;66.28
16094;BME280;8151;47.824;12.092;2023-04-03T12:40:59;96881.72;;;7.18;66.79
16094;BME280;8151;47.824;12.092;2023-04-03T12:43:42;96890.16;;;7.12;66.60
16094;BME280;8151;47.824;12.092;2023-04-03T12:46:16;96889.44;;;7.10;66.90
16094;BME280;8151;47.824;12.092;2023-04-03T12:48:50;96888.63;;;7.09;66.53
16094;BME280;8151;47.824;12.092;2023-04-03T12:51:28;96879.06;;;7.08;66.59
16094;BME280;8151;47.824;12.092;2023-04-03T12:54:02;96880.00;;;7.07;67.09
16094;BME280;8151;47.824;12.092;2023-04-03T12:56:32;96883.75;;;7.05;66.95
16094;BME280;8151;47.824;12.092;2023-04-03T12:59:14;96878.31;;;6.97;67.14
16094;BME280;8151;47.824;12.092;2023-04-03T13:01:43;96873.06;;;6.97;67.35
16094;BME280;8151;47.824;12.092;2023-04-03T13:04:14;96873.50;;;7.02;67.22
16094;BME280;8151;47.824;12.092;2023-04-03T13:06:43;96875.59;;;7.08;67.26
16094;BME280;8151;47.824;12.092;2023-04-03T13:09:20;96876.69;;;7.15;66.97
16094;BME280;8151;47.824;12.092;2023-04-03T13:11:51;96872.56;;;7.13;67.38
16094;BME280;8151;47.824;12.092;2023-04-03T13:14:30;96875.06;;;7.14;67.09
16094;BME280;8151;47.824;12.092;2023-04-03T13:17:05;96876.44;;;7.18;67.33
16094;BME280;8151;47.824;12.092;2023-04-03T13:19:36;96873.69;;;7.20;67.11
16094;BME280;8151;47.824;12.092;2023-04-03T13:22:06;96868.00;;;7.24;67.18
16094;BME280;8151;47.824;12.092;2023-04-03T13:24:38;96872.03;;;7.28;67.27
16094;BME280;8151;47.824;12.092;2023-04-03T13:27:07;96876.22;;;7.31;67.21
16094;BME280;8151;47.824;12.092;2023-04-03T13:29:38;96870.41;;;7.37;67.25
16094;BME280;8151;47.824;12.092;2023-04-03T13:32:13;96872.63;;;7.42;67.04
16094;BME280;8151;47.824;12.092;2023-04-03T13:34:47;96875.81;;;7.45;66.94
16094;BME280;8151;47.824;12.092;2023-04-03T13:37:21;96870.13;;;7.50;66.78
16094;BME280;8151;47.824;12.092;2023-04-03T13:40:02;96872.63;;;7.52;66.75
16094;BME280;8151;47.824;12.092;2023-04-03T13:42:41;96870.69;;;7.54;66.99
16094;BME280;8151;47.824;12.092;2023-04-03T13:45:16;96877.50;;;7.46;66.73
16094;BME280;8151;47.824;12.092;2023-04-03T13:47:48;96878.44;;;7.45;66.72
16094;BME280;8151;47.824;12.092;2023-04-03T13:50:20;96875.94;;;7.44;66.85